createdAt,value
2018-09-13T00:01:51.396Z,3.63
2018-09-13T00:04:19.637Z,3.00
2018-09-13T00:06:47.709Z,4.23
2018-09-13T00:09:15.831Z,4.40
2018-09-13T00:11:43.890Z,3.10
2018-09-13T00:14:12.036Z,3.80
2018-09-13T00:16:40.219Z,3.37
2018-09-13T00:19:08.411Z,3.47
2018-09-13T00:21:36.479Z,3.00
2018-09-13T00:24:04.558Z,3.80
2018-09-13T00:26:32.660Z,3.50
2018-09-13T00:29:00.840Z,3.80
2018-09-13T00:31:28.991Z,3.72
2018-09-13T00:33:57.190Z,2.70
2018-09-13T00:36:25.303Z,3.93
2018-09-13T00:38:53.411Z,3.40
2018-09-13T00:41:21.579Z,3.03
2018-09-13T00:43:49.656Z,3.73
2018-09-13T00:46:17.754Z,3.77
2018-09-13T00:48:45.839Z,3.30
2018-09-13T00:51:13.935Z,3.73
2018-09-13T00:53:42.039Z,3.27
2018-09-13T00:56:10.782Z,2.67
2018-09-13T00:58:39.039Z,3.00
2018-09-13T01:01:07.142Z,3.40
2018-09-13T01:03:35.241Z,3.13
2018-09-13T01:06:03.401Z,3.07
2018-09-13T01:08:31.470Z,2.37
2018-09-13T01:10:59.620Z,3.50
2018-09-13T01:13:28.295Z,3.87
2018-09-13T01:15:56.404Z,3.20
2018-09-13T01:18:24.551Z,3.40
2018-09-13T01:20:52.817Z,3.23
2018-09-13T01:23:20.912Z,4.03
2018-09-13T01:25:49.330Z,3.03
2018-09-13T01:28:17.408Z,2.87
2018-09-13T01:30:45.517Z,5.37
2018-09-13T01:33:13.650Z,4.37
2018-09-13T01:35:41.735Z,3.75
2018-09-13T01:38:09.837Z,3.90
2018-09-13T01:40:37.909Z,3.47
2018-09-13T01:43:06.397Z,4.62
2018-09-13T01:45:34.557Z,3.10
2018-09-13T01:48:02.640Z,3.20
2018-09-13T01:50:31.387Z,3.00
2018-09-13T01:52:59.512Z,3.17
2018-09-13T01:55:27.654Z,3.10
2018-09-13T01:57:55.734Z,2.60
2018-09-13T02:00:23.807Z,3.07
2018-09-13T02:02:51.863Z,3.80
2018-09-13T02:05:19.930Z,3.43
2018-09-13T02:07:48.005Z,3.17
2018-09-13T02:10:16.058Z,2.53
2018-09-13T02:12:44.144Z,2.63
2018-09-13T02:15:12.217Z,2.93
2018-09-13T02:17:40.357Z,3.03
2018-09-13T02:20:08.436Z,3.77
2018-09-13T02:22:36.507Z,3.70
2018-09-13T02:25:04.589Z,3.13
2018-09-13T02:27:32.661Z,3.30
2018-09-13T02:30:01.867Z,3.20
2018-09-13T02:32:29.975Z,3.40
2018-09-13T02:34:58.032Z,3.27
2018-09-13T02:37:26.133Z,3.43
2018-09-13T02:39:54.239Z,3.20
2018-09-13T02:42:22.325Z,2.27
2018-09-13T02:44:50.402Z,3.37
2018-09-13T02:47:18.494Z,2.70
2018-09-13T02:49:46.567Z,3.87
2018-09-13T02:52:14.671Z,3.60
2018-09-13T02:54:42.868Z,4.37
2018-09-13T02:57:10.948Z,2.93
2018-09-13T02:59:39.034Z,4.20
2018-09-13T03:02:07.131Z,5.55
2018-09-13T03:04:35.200Z,5.10
2018-09-13T03:07:03.270Z,4.20
2018-09-13T03:09:31.339Z,4.87
2018-09-13T03:11:59.412Z,5.20
2018-09-13T03:14:27.488Z,4.63
2018-09-13T03:16:55.687Z,4.40
2018-09-13T03:19:23.889Z,5.03
2018-09-13T03:21:51.997Z,4.77
2018-09-13T03:24:20.255Z,5.73
2018-09-13T03:26:48.509Z,4.70
2018-09-13T03:29:16.613Z,4.97
2018-09-13T03:31:45.478Z,4.08
2018-09-13T03:34:13.571Z,5.92
2018-09-13T03:36:41.650Z,4.85
2018-09-13T03:39:11.045Z,4.40
2018-09-13T03:41:39.187Z,4.43
2018-09-13T03:44:07.564Z,5.70
2018-09-13T03:46:36.064Z,6.60
2018-09-13T03:49:04.260Z,5.20
2018-09-13T03:51:32.363Z,4.17
2018-09-13T03:54:00.486Z,4.40
2018-09-13T03:56:28.590Z,4.73
2018-09-13T03:58:57.234Z,4.93
2018-09-13T04:01:25.318Z,5.07
2018-09-13T04:03:53.414Z,5.93
2018-09-13T04:06:21.511Z,5.40
2018-09-13T04:08:49.982Z,5.67
2018-09-13T04:11:18.062Z,5.73
2018-09-13T04:13:46.138Z,6.53
2018-09-13T04:16:14.244Z,6.80
2018-09-13T04:18:42.999Z,6.90
2018-09-13T04:21:13.028Z,5.97
2018-09-13T04:38:56.247Z,7.73
2018-09-13T04:50:32.881Z,6.97
2018-09-13T04:53:01.054Z,9.07
2018-09-13T04:55:29.274Z,7.23
2018-09-13T04:58:04.081Z,8.67
2018-09-13T05:00:32.286Z,7.97
2018-09-13T05:03:00.476Z,9.30
2018-09-13T05:05:28.692Z,7.93
2018-09-13T05:07:56.854Z,7.35
2018-09-13T05:10:25.001Z,8.08
2018-09-13T05:12:53.289Z,7.93
2018-09-13T05:15:21.397Z,7.50
2018-09-13T05:17:49.865Z,8.30
2018-09-13T05:20:18.046Z,8.20
2018-09-13T05:22:46.204Z,7.77
2018-09-13T05:25:14.397Z,6.97
2018-09-13T05:27:42.560Z,8.32
2018-09-13T05:30:10.706Z,7.85
2018-09-13T05:32:38.880Z,8.60
2018-09-13T05:35:08.068Z,9.50
2018-09-13T05:37:36.243Z,8.13
2018-09-13T05:40:04.587Z,9.50
2018-09-13T05:42:32.805Z,8.93
2018-09-13T05:45:00.981Z,8.80
2018-09-13T05:47:29.213Z,8.63
2018-09-13T05:49:57.355Z,9.20
2018-09-13T05:52:25.525Z,7.95
2018-09-13T05:54:53.683Z,7.97
2018-09-13T05:57:22.135Z,8.13
2018-09-13T05:59:50.317Z,7.80
2018-09-13T06:02:18.407Z,9.40
2018-09-13T06:04:46.551Z,7.53
2018-09-13T06:07:14.952Z,7.85
2018-09-13T06:09:43.071Z,8.10
2018-09-13T06:12:11.184Z,8.03
2018-09-13T06:14:39.304Z,7.50
2018-09-13T06:17:07.403Z,7.03
2018-09-13T06:19:35.528Z,7.70
2018-09-13T06:22:03.632Z,7.67
2018-09-13T06:24:31.747Z,7.87
2018-09-13T06:26:59.852Z,7.33
2018-09-13T06:29:27.981Z,7.30
2018-09-13T06:31:56.050Z,10.80
2018-09-13T06:34:24.173Z,10.90
2018-09-13T06:36:52.332Z,9.67
2018-09-13T06:39:20.439Z,8.50
2018-09-13T06:41:48.584Z,9.10
2018-09-13T06:44:16.690Z,9.73
2018-09-13T06:46:44.803Z,10.10
2018-09-13T06:49:12.931Z,12.33
2018-09-13T06:51:41.058Z,10.83
2018-09-13T06:54:09.268Z,8.47
2018-09-13T06:56:37.403Z,9.63
2018-09-13T06:59:05.734Z,9.43
2018-09-13T07:01:33.859Z,9.60
2018-09-13T07:04:01.948Z,10.82
2018-09-13T07:06:30.066Z,10.10
2018-09-13T07:08:58.230Z,9.58
2018-09-13T07:11:26.384Z,9.53
2018-09-13T07:13:54.498Z,10.30
2018-09-13T07:16:22.606Z,10.87
2018-09-13T07:18:50.736Z,9.60
2018-09-13T07:21:18.863Z,10.57
2018-09-13T07:23:46.992Z,11.00
2018-09-13T07:26:15.099Z,10.00
2018-09-13T07:28:43.227Z,11.33
2018-09-13T07:31:12.012Z,10.00
2018-09-13T07:33:40.124Z,10.53
2018-09-13T07:36:08.243Z,9.13
2018-09-13T07:38:36.372Z,10.57
2018-09-13T07:41:04.523Z,9.80
2018-09-13T07:43:32.647Z,9.97
2018-09-13T07:46:01.024Z,10.07
2018-09-13T07:48:29.195Z,9.93
2018-09-13T07:50:57.319Z,9.23
2018-09-13T07:53:25.529Z,10.10
2018-09-13T07:55:53.641Z,11.13
2018-09-13T07:58:21.752Z,9.47
2018-09-13T08:00:49.853Z,9.60
2018-09-13T08:03:17.935Z,9.80
2018-09-13T08:05:46.068Z,9.53
2018-09-13T08:08:14.182Z,10.73
2018-09-13T08:10:42.269Z,9.80
2018-09-13T08:13:10.467Z,10.70
2018-09-13T08:15:38.598Z,10.88
2018-09-13T08:18:06.717Z,9.93
2018-09-13T08:20:34.850Z,9.87
2018-09-13T08:23:02.960Z,8.47
2018-09-13T08:25:31.079Z,8.97
2018-09-13T08:27:59.170Z,8.80
2018-09-13T08:30:27.292Z,8.20
2018-09-13T08:32:55.408Z,9.45
2018-09-13T08:35:23.529Z,10.13
2018-09-13T08:37:51.652Z,9.37
2018-09-13T08:40:20.074Z,9.40
2018-09-13T08:42:48.130Z,11.53
2018-09-13T08:45:16.259Z,10.13
2018-09-13T08:47:45.022Z,10.53
2018-09-13T08:50:13.122Z,9.17
2018-09-13T08:52:41.270Z,10.20
2018-09-13T08:55:10.162Z,9.20
2018-09-13T08:57:38.292Z,9.87
2018-09-13T09:00:09.776Z,11.10
2018-09-13T09:02:37.903Z,9.20
2018-09-13T09:05:06.108Z,9.60
2018-09-13T09:07:34.207Z,9.07
2018-09-13T09:10:02.329Z,8.55
2018-09-13T09:12:30.429Z,8.63
2018-09-13T09:14:58.634Z,7.73
2018-09-13T09:17:26.752Z,8.90
2018-09-13T09:19:54.861Z,9.48
2018-09-13T09:22:22.950Z,7.77
2018-09-13T09:24:51.063Z,8.47
2018-09-13T09:27:19.200Z,8.37
2018-09-13T09:29:47.390Z,8.30
2018-09-13T09:32:15.439Z,9.13
2018-09-13T09:34:43.566Z,8.80
2018-09-13T09:37:11.663Z,8.03
2018-09-13T09:39:39.755Z,8.03
2018-09-13T09:42:08.681Z,8.80
2018-09-13T09:44:36.750Z,7.00
2018-09-13T09:47:04.999Z,6.53
2018-09-13T09:49:33.099Z,6.87
2018-09-13T09:52:01.214Z,8.27
2018-09-13T09:54:29.518Z,8.20
2018-09-13T09:56:57.597Z,9.27
2018-09-13T09:59:25.674Z,7.90
2018-09-13T10:01:59.240Z,7.10
2018-09-13T10:04:27.365Z,8.40
2018-09-13T10:06:55.819Z,8.60
2018-09-13T10:09:23.902Z,7.60
2018-09-13T10:11:52.018Z,7.70
2018-09-13T10:14:20.126Z,7.50
2018-09-13T10:16:54.031Z,6.45
2018-09-13T10:19:27.548Z,6.10
2018-09-13T10:22:01.264Z,7.35
2018-09-13T10:24:34.588Z,7.10
2018-09-13T10:29:14.581Z,5.62
2018-09-13T10:31:48.024Z,6.67
2018-09-13T10:36:27.377Z,6.80
2018-09-13T10:39:00.816Z,6.50
2018-09-13T10:41:34.325Z,5.53
2018-09-13T10:44:07.773Z,6.37
2018-09-13T10:46:35.905Z,5.75
2018-09-13T10:49:09.303Z,6.28
2018-09-13T10:51:42.693Z,7.30
2018-09-13T10:54:15.564Z,7.07
2018-09-13T10:56:43.796Z,5.90
2018-09-13T10:59:11.983Z,6.00
2018-09-13T11:01:40.073Z,4.40
2018-09-13T11:04:08.306Z,6.87
2018-09-13T11:06:36.336Z,6.17
2018-09-13T11:09:05.276Z,6.63
2018-09-13T11:11:33.375Z,6.30
2018-09-13T11:14:06.771Z,6.03
2018-09-13T11:16:34.909Z,6.23
2018-09-13T11:19:03.029Z,5.77
2018-09-13T11:21:31.160Z,6.80
2018-09-13T11:23:59.343Z,6.17
2018-09-13T11:26:27.450Z,4.83
2018-09-13T11:28:55.559Z,5.63
2018-09-13T11:31:23.650Z,4.87
2018-09-13T11:33:52.391Z,4.25
2018-09-13T11:36:20.500Z,3.93
2018-09-13T11:38:48.608Z,4.87
2018-09-13T11:41:16.704Z,3.97
2018-09-13T11:43:44.820Z,3.77
2018-09-13T11:46:12.903Z,4.43
2018-09-13T11:48:40.990Z,2.90
2018-09-13T11:51:09.099Z,3.37
2018-09-13T11:53:37.188Z,3.47
2018-09-13T11:56:05.264Z,3.07
2018-09-13T11:58:33.358Z,4.08
2018-09-13T12:01:01.485Z,3.00
2018-09-13T12:03:29.578Z,2.90
2018-09-13T12:05:57.629Z,4.00
2018-09-13T12:08:25.727Z,3.57
2018-09-13T12:13:28.531Z,4.10
2018-09-13T12:15:56.627Z,4.37
2018-09-13T12:18:24.759Z,4.50
2018-09-13T12:20:52.808Z,3.90
2018-09-13T12:23:20.939Z,2.77
2018-09-13T12:25:49.007Z,4.53
2018-09-13T12:28:17.120Z,3.73
2018-09-13T12:30:45.236Z,4.43
2018-09-13T12:33:13.311Z,3.20
2018-09-13T12:35:41.429Z,4.73
2018-09-13T12:38:10.074Z,6.70
2018-09-13T12:40:38.170Z,4.50
2018-09-13T12:43:06.276Z,4.10
2018-09-13T12:45:34.373Z,3.83
2018-09-13T12:48:02.461Z,4.00
2018-09-13T12:50:30.592Z,3.85
2018-09-13T12:52:58.688Z,4.27
2018-09-13T12:55:32.896Z,4.13
2018-09-13T12:58:01.452Z,3.17
2018-09-13T13:00:29.658Z,4.67
2018-09-13T13:02:57.636Z,2.97
2018-09-13T13:05:26.002Z,3.45
2018-09-13T13:07:54.088Z,3.07
2018-09-13T13:10:22.160Z,3.40
2018-09-13T13:12:50.532Z,4.03
2018-09-13T13:15:18.635Z,3.83
2018-09-13T13:17:46.771Z,2.73
2018-09-13T13:20:14.861Z,2.50
2018-09-13T13:22:42.958Z,2.40
2018-09-13T13:25:11.043Z,3.23
2018-09-13T13:27:39.281Z,4.00
2018-09-13T13:30:07.253Z,3.17
2018-09-13T13:32:35.361Z,2.87
2018-09-13T13:35:03.460Z,3.23
2018-09-13T13:37:31.568Z,4.07
2018-09-13T13:39:59.651Z,3.33
2018-09-13T13:42:27.744Z,3.70
2018-09-13T13:44:55.828Z,2.73
2018-09-13T13:47:23.959Z,3.72
2018-09-13T13:49:52.052Z,3.20
2018-09-13T13:52:20.127Z,4.35
2018-09-13T13:54:48.202Z,3.17
2018-09-13T13:57:16.314Z,4.20
2018-09-13T13:59:44.407Z,3.67
2018-09-13T14:02:12.493Z,3.75
2018-09-13T14:04:40.559Z,3.37
2018-09-13T14:07:08.668Z,4.77
2018-09-13T14:09:36.782Z,4.67
2018-09-13T14:12:04.862Z,4.30
2018-09-13T14:14:32.967Z,4.03
2018-09-13T14:17:01.216Z,4.63
2018-09-13T14:19:29.352Z,4.00
2018-09-13T14:21:58.051Z,5.25
2018-09-13T14:24:26.136Z,4.40
2018-09-13T14:26:54.215Z,5.73
2018-09-13T14:29:22.290Z,5.77
2018-09-13T14:31:50.383Z,5.90
2018-09-13T14:34:18.452Z,6.80
2018-09-13T14:36:46.549Z,7.63
2018-09-13T14:39:14.765Z,7.58
2018-09-13T14:41:42.924Z,7.00
2018-09-13T14:44:11.059Z,8.20
2018-09-13T14:46:39.164Z,8.67
2018-09-13T14:49:07.361Z,9.57
2018-09-13T14:51:35.489Z,7.62
2018-09-13T14:54:03.639Z,8.67
2018-09-13T14:56:32.155Z,9.90
2018-09-13T14:59:00.218Z,7.87
2018-09-13T15:01:29.184Z,10.35
2018-09-13T15:03:57.254Z,9.40
2018-09-13T15:06:25.355Z,10.23
2018-09-13T15:09:00.318Z,10.07
2018-09-13T15:11:29.452Z,9.90
2018-09-13T15:38:21.993Z,11.63
2018-09-13T15:40:50.189Z,10.07
2018-09-13T15:43:18.354Z,11.38
2018-09-13T15:45:47.752Z,11.93
2018-09-13T15:48:15.903Z,12.20
2018-09-13T15:50:44.069Z,10.90
2018-09-13T15:53:12.248Z,11.60
2018-09-13T15:55:40.374Z,10.17
2018-09-13T15:58:08.548Z,11.93
2018-09-13T16:00:36.649Z,10.10
2018-09-13T16:03:05.083Z,13.48
2018-09-13T16:08:35.516Z,10.70
2018-09-13T16:11:03.657Z,11.23
2018-09-13T16:13:31.798Z,10.37
2018-09-13T16:15:59.937Z,10.97
2018-09-13T16:18:28.109Z,9.43
2018-09-13T16:20:56.353Z,11.30
2018-09-13T16:23:24.476Z,12.53
2018-09-13T16:25:52.651Z,11.25
2018-09-13T16:28:20.787Z,12.43
2018-09-13T16:30:48.925Z,12.70
2018-09-13T16:33:17.086Z,11.30
2018-09-13T16:35:47.566Z,11.23
2018-09-13T16:38:20.942Z,10.73
2018-09-13T16:40:54.379Z,11.77
2018-09-13T16:43:27.836Z,10.00
2018-09-13T16:45:56.381Z,10.97
2018-09-13T16:48:28.662Z,10.13
2018-09-13T16:50:56.783Z,10.80
2018-09-13T16:53:24.887Z,13.00
2018-09-13T16:55:53.234Z,11.57
2018-09-13T17:01:25.116Z,10.50
2018-09-13T17:03:53.654Z,11.53
2018-09-13T17:06:22.570Z,12.80
2018-09-13T17:08:50.712Z,9.83
2018-09-13T17:11:18.854Z,13.07
2018-09-13T17:13:47.260Z,10.67
2018-09-13T17:16:15.359Z,9.50
2018-09-13T17:18:43.700Z,11.77
2018-09-13T17:21:12.233Z,11.43
2018-09-13T17:23:40.575Z,9.80
2018-09-13T17:26:09.641Z,11.87
2018-09-13T17:28:37.754Z,10.57
2018-09-13T17:31:05.981Z,10.83
2018-09-13T17:33:34.079Z,10.33
2018-09-13T17:36:02.184Z,12.57
2018-09-13T17:38:30.313Z,11.47
2018-09-13T17:40:58.501Z,12.77
2018-09-13T17:43:26.623Z,11.17
2018-09-13T17:45:54.754Z,13.37
2018-09-13T17:48:22.882Z,11.53
2018-09-13T17:50:50.988Z,11.37
2018-09-13T17:53:19.100Z,11.22
2018-09-13T17:55:47.275Z,10.53
2018-09-13T17:58:15.389Z,11.90
2018-09-13T18:00:43.487Z,12.83
2018-09-13T18:03:11.686Z,11.70
2018-09-13T18:05:39.799Z,10.35
2018-09-13T18:08:08.553Z,11.48
2018-09-13T18:10:37.167Z,12.97
2018-09-13T18:13:05.439Z,10.63
2018-09-13T18:15:33.604Z,12.17
2018-09-13T18:18:01.689Z,13.17
2018-09-13T18:20:29.831Z,11.90
2018-09-13T18:22:57.963Z,13.23
2018-09-13T18:25:26.065Z,11.33
2018-09-13T18:27:54.216Z,10.97
2018-09-13T18:30:22.385Z,11.97
2018-09-13T18:32:50.679Z,12.77
2018-09-13T18:35:18.807Z,11.97
2018-09-13T18:37:47.256Z,12.80
2018-09-13T18:40:15.397Z,8.60
2018-09-13T18:42:43.519Z,12.67
2018-09-13T18:45:11.681Z,12.60
2018-09-13T18:47:39.788Z,10.90
2018-09-13T18:50:08.167Z,11.33
2018-09-13T18:52:36.608Z,13.75
2018-09-13T18:55:04.732Z,11.90
2018-09-13T18:57:33.398Z,11.13
2018-09-13T19:00:01.572Z,15.13
2018-09-13T19:02:29.702Z,13.20
2018-09-13T19:04:57.890Z,13.27
2018-09-13T19:07:26.030Z,11.87
2018-09-13T19:09:54.259Z,14.15
2018-09-13T19:15:25.576Z,14.57
2018-09-13T19:17:53.723Z,15.40
2018-09-13T19:20:22.343Z,15.57
2018-09-13T19:22:50.479Z,15.63
2018-09-13T19:25:18.643Z,14.53
2018-09-13T19:27:46.784Z,12.60
2018-09-13T19:30:14.903Z,12.50
2018-09-13T19:32:43.344Z,13.60
2018-09-13T19:35:11.436Z,10.67
2018-09-13T19:37:39.554Z,12.57
2018-09-13T19:40:08.177Z,13.85
2018-09-13T19:42:36.299Z,16.00
2018-09-13T19:45:04.503Z,14.57
2018-09-13T19:47:32.673Z,13.80
2018-09-13T19:50:00.790Z,13.90
2018-09-13T19:52:28.886Z,15.80
2018-09-13T19:54:56.999Z,15.00
2018-09-13T19:57:25.912Z,16.87
2018-09-13T19:59:54.030Z,15.50
2018-09-13T20:02:22.466Z,14.20
2018-09-13T20:04:50.612Z,12.00
2018-09-13T20:07:18.699Z,14.40
2018-09-13T20:09:46.803Z,14.40
2018-09-13T20:12:14.920Z,14.58
2018-09-13T20:14:43.215Z,15.37
2018-09-13T20:17:11.315Z,14.53
2018-09-13T20:19:39.672Z,13.47
2018-09-13T20:22:09.255Z,14.00
2018-09-13T20:24:36.225Z,13.17
2018-09-13T20:27:04.530Z,15.40
2018-09-13T20:29:32.613Z,15.50
2018-09-13T20:32:00.744Z,13.60
2018-09-13T20:34:29.056Z,14.43
2018-09-13T20:36:57.118Z,13.45
2018-09-13T20:39:25.214Z,15.70
2018-09-13T20:41:53.303Z,15.37
2018-09-13T20:44:21.412Z,13.83
2018-09-13T20:46:49.824Z,12.90
2018-09-13T20:49:20.211Z,15.40
2018-09-13T20:51:48.290Z,14.90
2018-09-13T20:54:16.369Z,16.30
2018-09-13T20:56:44.438Z,15.53
2018-09-13T21:02:15.396Z,14.30
2018-09-13T21:04:43.529Z,18.40
2018-09-13T21:07:11.719Z,14.97
2018-09-13T21:09:39.843Z,19.07
2018-09-13T21:12:08.028Z,16.67
2018-09-13T21:14:36.171Z,17.87
2018-09-13T21:17:04.339Z,17.20
2018-09-13T21:19:32.510Z,16.43
2018-09-13T21:22:00.590Z,16.90
2018-09-13T21:24:28.695Z,16.93
2018-09-13T21:26:56.780Z,14.77
2018-09-13T21:29:24.880Z,16.23
2018-09-13T21:31:52.992Z,17.00
2018-09-13T21:34:21.136Z,14.67
2018-09-13T21:36:49.218Z,19.40
2018-09-13T21:39:17.312Z,17.40
2018-09-13T21:41:45.422Z,19.33
2018-09-13T21:44:13.592Z,19.37
2018-09-13T21:46:41.651Z,19.67
2018-09-13T21:52:12.717Z,17.33
2018-09-13T21:54:40.916Z,20.27
